createdAt,value
2018-03-27T00:00:35.620Z,59.70
2018-03-27T00:03:03.177Z,59.60
2018-03-27T00:05:31.378Z,59.60
2018-03-27T00:07:58.809Z,59.50
2018-03-27T00:10:26.265Z,59.70
2018-03-27T00:12:53.733Z,59.60
2018-03-27T00:15:21.188Z,59.50
2018-03-27T00:17:51.266Z,59.30
2018-03-27T00:20:18.773Z,59.20
2018-03-27T00:22:46.257Z,59.00
2018-03-27T00:25:13.700Z,58.80
2018-03-27T00:27:52.955Z,58.80
2018-03-27T00:33:16.757Z,59.10
2018-03-27T00:35:56.176Z,59.10
2018-03-27T00:38:35.350Z,58.90
2018-03-27T00:41:03.630Z,58.90
2018-03-27T00:43:31.088Z,59.30
2018-03-27T00:45:58.543Z,59.30
2018-03-27T00:48:25.994Z,59.20
2018-03-27T00:50:53.475Z,59.30
2018-03-27T00:53:20.917Z,59.30
2018-03-27T00:55:48.353Z,59.30
2018-03-27T00:58:15.805Z,59.60
2018-03-27T01:00:43.248Z,59.80
2018-03-27T01:03:10.710Z,59.50
2018-03-27T01:05:38.145Z,59.50
2018-03-27T01:08:05.852Z,59.40
2018-03-27T01:10:33.344Z,59.50
2018-03-27T01:13:00.787Z,59.60
2018-03-27T01:15:28.237Z,59.90
2018-03-27T01:17:58.373Z,59.90
2018-03-27T01:20:28.360Z,59.90
2018-03-27T01:22:55.792Z,59.70
2018-03-27T01:25:23.232Z,59.80
2018-03-27T01:27:50.669Z,60.00
2018-03-27T01:30:18.121Z,60.00
2018-03-27T01:32:45.598Z,60.10
2018-03-27T01:35:13.034Z,60.20
2018-03-27T01:37:40.477Z,61.00
2018-03-27T01:40:08.167Z,61.10
2018-03-27T01:42:35.626Z,61.30
2018-03-27T01:45:03.085Z,61.30
2018-03-27T01:47:30.685Z,60.90
2018-03-27T01:49:58.131Z,61.00
2018-03-27T01:52:25.583Z,61.10
2018-03-27T01:54:53.013Z,61.60
2018-03-27T01:57:20.463Z,61.60
2018-03-27T01:59:48.687Z,61.80
2018-03-27T02:02:16.135Z,61.80
2018-03-27T02:04:43.583Z,62.00
2018-03-27T02:07:11.017Z,62.40
2018-03-27T02:09:38.462Z,62.60
2018-03-27T02:12:11.568Z,62.60
2018-03-27T02:14:44.624Z,62.80
2018-03-27T02:17:17.752Z,63.10
2018-03-27T02:19:50.879Z,63.10
2018-03-27T02:22:18.338Z,63.50
2018-03-27T02:24:45.781Z,63.60
2018-03-27T02:27:13.405Z,63.70
2018-03-27T02:29:40.845Z,63.90
2018-03-27T02:32:08.325Z,64.00
2018-03-27T02:34:35.753Z,63.90
2018-03-27T02:37:03.211Z,63.80
2018-03-27T02:39:30.648Z,63.80
2018-03-27T02:41:58.279Z,63.80
2018-03-27T02:44:25.738Z,64.00
2018-03-27T02:46:53.169Z,64.10
2018-03-27T02:49:20.616Z,64.30
2018-03-27T02:51:48.096Z,64.60
2018-03-27T02:54:15.539Z,65.20
2018-03-27T02:56:42.982Z,65.20
2018-03-27T02:59:10.426Z,65.20
2018-03-27T03:01:37.878Z,65.30
2018-03-27T03:04:06.114Z,66.10
2018-03-27T03:06:33.558Z,66.10
2018-03-27T03:09:01.007Z,66.40
2018-03-27T03:11:28.601Z,66.50
2018-03-27T03:13:56.044Z,66.70
2018-03-27T03:16:23.500Z,67.00
2018-03-27T03:18:50.955Z,67.20
2018-03-27T03:21:18.440Z,67.40
2018-03-27T03:23:45.872Z,67.60
2018-03-27T03:26:13.321Z,67.80
2018-03-27T03:28:40.761Z,68.00
2018-03-27T03:31:08.202Z,68.30
2018-03-27T03:33:35.645Z,68.30
2018-03-27T03:36:03.232Z,68.50
2018-03-27T03:38:30.671Z,68.80
2018-03-27T03:40:58.116Z,68.90
2018-03-27T03:43:25.553Z,69.10
2018-03-27T03:45:53.004Z,69.30
2018-03-27T03:48:20.513Z,69.50
2018-03-27T03:50:47.992Z,69.70
2018-03-27T03:53:15.448Z,69.90
2018-03-27T03:55:42.890Z,69.90
2018-03-27T03:58:10.350Z,70.00
2018-03-27T04:00:37.786Z,69.90
2018-03-27T04:03:05.217Z,70.20
2018-03-27T04:05:32.746Z,70.60
2018-03-27T04:08:00.195Z,70.70
2018-03-27T04:10:27.646Z,70.90
2018-03-27T04:12:55.151Z,71.60
2018-03-27T04:15:22.588Z,70.80
2018-03-27T04:17:54.085Z,71.00
2018-03-27T04:20:21.522Z,71.30
2018-03-27T04:22:49.378Z,71.40
2018-03-27T04:25:16.818Z,71.00
2018-03-27T04:27:44.400Z,71.20
2018-03-27T04:30:11.963Z,71.40
2018-03-27T04:32:39.402Z,72.70
2018-03-27T04:35:06.852Z,71.80
2018-03-27T04:37:34.287Z,71.40
2018-03-27T04:40:01.839Z,70.70
2018-03-27T04:42:29.281Z,70.80
2018-03-27T04:44:56.733Z,71.20
2018-03-27T04:47:24.594Z,71.80
2018-03-27T04:49:52.039Z,71.90
2018-03-27T04:52:19.469Z,72.30
2018-03-27T04:54:46.922Z,72.20
2018-03-27T04:57:14.458Z,72.10
2018-03-27T04:59:41.935Z,72.20
2018-03-27T05:02:09.397Z,72.80
2018-03-27T05:04:36.837Z,73.30
2018-03-27T05:07:04.302Z,73.20
2018-03-27T05:09:31.763Z,73.80
2018-03-27T05:11:59.292Z,74.30
2018-03-27T05:14:27.071Z,74.80
2018-03-27T05:16:54.662Z,75.40
2018-03-27T05:19:22.117Z,75.70
2018-03-27T05:21:49.575Z,75.80
2018-03-27T05:24:17.052Z,75.80
2018-03-27T05:26:44.494Z,75.70
2018-03-27T05:29:11.941Z,75.80
2018-03-27T05:31:39.600Z,75.90
2018-03-27T05:34:07.030Z,75.90
2018-03-27T05:36:34.490Z,76.00
2018-03-27T05:39:01.934Z,75.90
2018-03-27T05:41:32.216Z,75.90
2018-03-27T05:43:59.669Z,75.60
2018-03-27T05:46:27.113Z,75.60
2018-03-27T05:48:54.565Z,75.60
2018-03-27T05:51:22.023Z,75.40
2018-03-27T05:53:49.626Z,75.40
2018-03-27T05:56:17.081Z,75.40
2018-03-27T05:58:44.522Z,75.40
2018-03-27T06:01:11.995Z,75.40
2018-03-27T06:03:39.481Z,74.90
2018-03-27T06:06:06.917Z,74.50
2018-03-27T06:08:34.378Z,74.30
2018-03-27T06:11:01.810Z,75.20
2018-03-27T06:13:29.265Z,75.70
2018-03-27T06:15:56.794Z,76.00
2018-03-27T06:18:24.232Z,76.30
2018-03-27T06:20:51.938Z,76.30
2018-03-27T06:23:19.399Z,76.20
2018-03-27T06:25:46.849Z,76.40
2018-03-27T06:28:14.318Z,76.80
2018-03-27T06:30:41.769Z,76.70
2018-03-27T06:33:10.742Z,75.70
2018-03-27T06:35:38.178Z,75.60
2018-03-27T06:38:05.637Z,75.10
2018-03-27T06:40:33.071Z,75.10
2018-03-27T06:43:00.509Z,75.40
2018-03-27T06:45:27.953Z,75.90
2018-03-27T06:47:59.130Z,75.60
2018-03-27T06:50:26.834Z,74.80
2018-03-27T06:52:54.315Z,73.40
2018-03-27T06:55:21.726Z,73.10
2018-03-27T06:57:49.201Z,74.30
2018-03-27T07:00:16.813Z,76.20
2018-03-27T07:02:44.258Z,76.90
2018-03-27T07:05:11.768Z,77.50
2018-03-27T07:07:39.159Z,77.30
2018-03-27T07:10:07.375Z,77.10
2018-03-27T07:12:34.824Z,77.00
2018-03-27T07:15:02.266Z,76.60
2018-03-27T07:17:29.716Z,75.40
2018-03-27T07:19:57.122Z,74.40
2018-03-27T07:22:24.572Z,74.20
2018-03-27T07:24:52.002Z,74.20
2018-03-27T07:27:19.456Z,73.80
2018-03-27T07:29:46.897Z,73.60
2018-03-27T07:32:14.340Z,73.10
2018-03-27T07:34:41.798Z,72.40
2018-03-27T07:37:09.232Z,72.10
2018-03-27T07:39:37.094Z,71.20
2018-03-27T07:42:04.520Z,70.00
2018-03-27T07:44:32.042Z,68.40
2018-03-27T07:46:59.612Z,67.90
2018-03-27T07:49:27.058Z,67.50
2018-03-27T07:51:54.608Z,66.20
2018-03-27T07:54:22.060Z,62.90
2018-03-27T07:56:49.501Z,60.70
2018-03-27T07:59:16.952Z,59.30
2018-03-27T08:01:45.175Z,56.70
2018-03-27T08:04:12.636Z,56.60
2018-03-27T08:06:40.078Z,54.40
2018-03-27T08:09:07.781Z,53.00
2018-03-27T08:11:35.244Z,50.10
2018-03-27T08:14:02.692Z,48.90
2018-03-27T08:16:30.393Z,46.40
2018-03-27T08:18:58.059Z,45.20
2018-03-27T08:21:27.024Z,43.90
2018-03-27T08:23:54.799Z,43.80
2018-03-27T08:26:22.286Z,42.80
2018-03-27T08:28:50.033Z,42.60
2018-03-27T08:31:17.612Z,42.40
2018-03-27T08:33:45.054Z,41.30
2018-03-27T08:36:12.682Z,40.40
2018-03-27T08:38:40.480Z,40.20
2018-03-27T08:41:08.362Z,40.10
2018-03-27T08:43:35.828Z,40.10
2018-03-27T08:46:03.274Z,39.50
2018-03-27T08:48:30.730Z,40.10
2018-03-27T08:50:58.160Z,39.40
2018-03-27T08:53:25.962Z,38.60
2018-03-27T08:55:53.406Z,38.90
2018-03-27T08:58:20.864Z,39.10
2018-03-27T09:00:48.336Z,38.70
2018-03-27T09:03:15.844Z,39.30
2018-03-27T09:05:43.481Z,39.80
2018-03-27T09:08:10.938Z,39.50
2018-03-27T09:10:38.381Z,40.80
2018-03-27T09:13:08.050Z,41.90
2018-03-27T09:15:35.490Z,43.00
2018-03-27T09:18:03.082Z,43.70
2018-03-27T09:20:30.905Z,44.70
2018-03-27T09:22:58.380Z,45.20
2018-03-27T09:25:26.114Z,45.10
2018-03-27T09:27:53.552Z,45.20
2018-03-27T09:30:21.191Z,44.70
2018-03-27T09:35:27.125Z,45.30
2018-03-27T09:37:57.173Z,45.30
2018-03-27T09:40:24.614Z,45.10
2018-03-27T09:42:52.070Z,45.00
2018-03-27T09:45:19.516Z,45.70
2018-03-27T09:47:46.973Z,46.40
2018-03-27T09:50:14.420Z,46.80
2018-03-27T09:52:42.038Z,47.80
2018-03-27T09:55:09.526Z,48.30
2018-03-27T09:57:37.036Z,48.40
2018-03-27T10:00:05.316Z,49.40
2018-03-27T10:02:32.790Z,49.70
2018-03-27T10:05:00.239Z,50.40
2018-03-27T10:07:27.704Z,50.70
2018-03-27T10:09:55.129Z,51.90
2018-03-27T10:12:22.603Z,52.30
2018-03-27T10:14:50.059Z,53.30
2018-03-27T10:17:17.500Z,53.10
2018-03-27T10:19:44.956Z,53.80
2018-03-27T10:22:12.547Z,54.70
2018-03-27T10:24:39.983Z,55.10
2018-03-27T10:27:08.350Z,55.60
2018-03-27T10:29:35.785Z,55.20
2018-03-27T10:32:03.231Z,55.90
2018-03-27T10:34:30.693Z,56.30
2018-03-27T10:36:58.373Z,56.90
2018-03-27T10:39:25.849Z,57.40
2018-03-27T10:41:53.531Z,57.40
2018-03-27T10:44:20.998Z,57.40
2018-03-27T10:46:48.441Z,57.40
2018-03-27T10:49:15.909Z,57.40
2018-03-27T10:51:43.371Z,57.50
2018-03-27T10:54:10.819Z,57.40
2018-03-27T10:56:38.274Z,57.20
2018-03-27T10:59:05.934Z,57.30
2018-03-27T11:01:33.520Z,57.40
2018-03-27T11:04:00.985Z,57.10
2018-03-27T11:06:28.413Z,57.10
2018-03-27T11:08:55.865Z,57.50
2018-03-27T11:11:23.327Z,58.00
2018-03-27T11:13:50.794Z,58.50
2018-03-27T11:16:18.308Z,59.10
2018-03-27T11:18:46.528Z,59.80
2018-03-27T11:21:14.179Z,59.70
2018-03-27T11:23:41.625Z,60.00
2018-03-27T11:26:09.081Z,60.30
2018-03-27T11:28:36.701Z,60.30
2018-03-27T11:31:04.158Z,60.60
2018-03-27T11:33:32.612Z,61.50
2018-03-27T11:36:00.058Z,62.70
2018-03-27T11:38:27.504Z,63.20
2018-03-27T11:40:54.944Z,63.90
2018-03-27T11:43:22.509Z,63.60
2018-03-27T11:45:49.964Z,63.80
2018-03-27T11:48:17.409Z,62.30
2018-03-27T11:50:44.877Z,61.60
2018-03-27T11:53:12.642Z,61.40
2018-03-27T11:55:40.094Z,60.40
2018-03-27T11:58:07.562Z,59.40
2018-03-27T12:00:35.008Z,58.70
2018-03-27T12:03:02.640Z,57.60
2018-03-27T12:05:30.087Z,55.10
2018-03-27T12:08:01.102Z,54.00
2018-03-27T12:10:28.553Z,53.80
2018-03-27T12:12:56.138Z,52.50
2018-03-27T12:15:23.687Z,50.60
2018-03-27T12:17:54.526Z,49.00
2018-03-27T12:20:22.238Z,48.50
2018-03-27T12:22:49.674Z,46.60
2018-03-27T12:25:17.110Z,46.50
2018-03-27T12:27:44.585Z,46.70
2018-03-27T12:30:12.022Z,45.80
2018-03-27T12:32:39.473Z,46.30
2018-03-27T12:35:07.261Z,47.60
2018-03-27T12:37:34.734Z,48.30
2018-03-27T12:40:02.194Z,50.50
2018-03-27T12:42:29.644Z,51.00
2018-03-27T12:44:57.193Z,51.10
2018-03-27T12:47:24.624Z,52.00
2018-03-27T12:49:52.082Z,51.90
2018-03-27T12:52:19.537Z,52.50
2018-03-27T12:54:47.053Z,53.10
2018-03-27T12:57:14.930Z,53.50
2018-03-27T12:59:42.381Z,53.00
2018-03-27T13:02:10.001Z,53.80
2018-03-27T13:04:37.913Z,54.70
2018-03-27T13:07:05.338Z,55.60
2018-03-27T13:09:32.781Z,56.40
2018-03-27T13:12:00.618Z,56.20
2018-03-27T13:14:28.057Z,56.30
2018-03-27T13:16:55.567Z,56.80
2018-03-27T13:19:23.010Z,56.20
2018-03-27T13:21:50.453Z,56.40
2018-03-27T13:24:17.912Z,56.90
2018-03-27T13:26:52.236Z,57.10
2018-03-27T13:29:19.686Z,56.80
2018-03-27T13:31:47.142Z,56.90
2018-03-27T13:34:14.582Z,57.30
2018-03-27T13:36:42.804Z,57.60
2018-03-27T13:39:10.254Z,57.50
2018-03-27T13:41:37.746Z,57.70
2018-03-27T13:44:05.187Z,57.90
2018-03-27T13:46:32.637Z,58.40
2018-03-27T13:49:00.110Z,60.60
2018-03-27T13:51:27.571Z,64.40
2018-03-27T13:53:55.221Z,66.90
2018-03-27T13:56:22.714Z,68.60
2018-03-27T13:58:50.157Z,69.00
2018-03-27T14:01:17.627Z,70.60
2018-03-27T14:03:45.289Z,70.50
2018-03-27T14:06:12.742Z,72.60
2018-03-27T14:08:40.190Z,72.30
2018-03-27T14:11:07.630Z,72.70
2018-03-27T14:13:35.081Z,74.10
2018-03-27T14:16:03.102Z,73.60
2018-03-27T14:18:30.666Z,74.30
2018-03-27T14:20:58.130Z,73.40
2018-03-27T14:23:25.561Z,73.40
2018-03-27T14:25:53.032Z,73.40
2018-03-27T14:28:20.717Z,72.80
2018-03-27T14:30:48.208Z,72.50
2018-03-27T14:33:15.667Z,71.70
2018-03-27T14:35:43.126Z,71.40
2018-03-27T14:38:10.582Z,73.00
2018-03-27T14:40:38.020Z,72.10
2018-03-27T14:43:05.476Z,71.30
2018-03-27T14:45:33.136Z,71.00
2018-03-27T14:48:00.817Z,70.50
2018-03-27T14:50:28.313Z,70.80
2018-03-27T14:52:55.842Z,71.00
2018-03-27T14:55:23.311Z,69.10
2018-03-27T14:57:50.762Z,66.50
2018-03-27T15:00:18.221Z,64.10
2018-03-27T15:02:45.679Z,63.00
2018-03-27T15:05:13.134Z,61.60
2018-03-27T15:07:40.590Z,62.20
2018-03-27T15:10:08.054Z,62.60
2018-03-27T15:12:35.481Z,62.80
2018-03-27T15:15:02.933Z,63.00
2018-03-27T15:17:30.368Z,63.10
2018-03-27T15:19:57.821Z,63.30
2018-03-27T15:22:25.287Z,64.10
2018-03-27T15:24:52.958Z,63.80
2018-03-27T15:27:20.406Z,64.60
2018-03-27T15:29:47.869Z,65.40
2018-03-27T15:32:15.321Z,65.00
2018-03-27T15:34:42.766Z,66.20
2018-03-27T15:37:10.277Z,65.60
2018-03-27T15:39:40.477Z,64.70
2018-03-27T15:42:07.928Z,63.70
2018-03-27T15:44:35.377Z,64.50
2018-03-27T15:47:02.829Z,64.80
2018-03-27T15:49:30.285Z,65.90
2018-03-27T15:51:58.747Z,66.40
2018-03-27T15:54:26.185Z,65.30
2018-03-27T15:56:53.654Z,66.20
2018-03-27T15:59:21.094Z,66.40
2018-03-27T16:01:48.730Z,67.60
2018-03-27T16:04:16.170Z,67.30
2018-03-27T16:06:43.611Z,68.10
2018-03-27T16:09:11.057Z,68.60
2018-03-27T16:11:38.509Z,68.90
2018-03-27T16:14:05.946Z,69.30
2018-03-27T16:16:33.400Z,70.40
2018-03-27T16:19:00.845Z,73.20
2018-03-27T16:21:28.296Z,75.20
2018-03-27T16:23:55.898Z,76.80
2018-03-27T16:26:23.338Z,77.60
2018-03-27T16:28:50.791Z,78.40
2018-03-27T16:31:18.248Z,78.80
2018-03-27T16:33:45.941Z,79.30
2018-03-27T16:36:13.388Z,79.60
2018-03-27T16:38:40.848Z,79.90
2018-03-27T16:41:08.309Z,80.60
2018-03-27T16:43:35.765Z,81.50
2018-03-27T16:46:03.193Z,82.40
2018-03-27T16:48:31.436Z,83.20
2018-03-27T16:51:00.397Z,83.40
2018-03-27T16:53:27.857Z,83.20
2018-03-27T16:55:55.363Z,83.90
2018-03-27T16:58:22.830Z,84.60
2018-03-27T17:00:50.292Z,85.10
2018-03-27T17:03:18.154Z,85.60
2018-03-27T17:05:45.601Z,86.00
2018-03-27T17:08:13.066Z,87.00
2018-03-27T17:10:40.524Z,87.60
2018-03-27T17:13:08.108Z,88.20
2018-03-27T17:15:35.566Z,88.70
2018-03-27T17:18:03.021Z,88.90
2018-03-27T17:20:30.481Z,88.90
2018-03-27T17:22:57.925Z,89.30
2018-03-27T17:25:25.376Z,89.70
2018-03-27T17:27:52.824Z,90.00
2018-03-27T17:30:20.285Z,90.10
2018-03-27T17:32:47.726Z,90.20
2018-03-27T17:35:15.173Z,90.60
2018-03-27T17:37:43.626Z,90.60
2018-03-27T17:40:11.094Z,90.60
2018-03-27T17:42:38.596Z,90.80
2018-03-27T17:45:06.042Z,91.10
2018-03-27T17:47:33.608Z,91.40
2018-03-27T17:50:01.446Z,91.60
2018-03-27T17:52:28.877Z,91.80
2018-03-27T17:54:56.350Z,92.00
2018-03-27T17:57:23.785Z,92.20
2018-03-27T17:59:51.259Z,92.40
2018-03-27T18:02:18.694Z,92.60
2018-03-27T18:04:46.890Z,93.00
2018-03-27T18:07:14.354Z,93.00
2018-03-27T18:09:41.962Z,93.10
2018-03-27T18:12:09.435Z,93.30
2018-03-27T18:14:36.886Z,93.50
2018-03-27T18:17:04.326Z,93.90
2018-03-27T18:19:31.807Z,94.10
2018-03-27T18:21:59.273Z,94.70
2018-03-27T18:24:26.918Z,94.60
2018-03-27T18:26:54.352Z,94.70
2018-03-27T18:29:21.829Z,94.70
2018-03-27T18:31:49.613Z,94.60
2018-03-27T18:34:17.054Z,94.60
2018-03-27T18:36:44.505Z,94.60
2018-03-27T18:39:11.941Z,94.70
2018-03-27T18:41:40.161Z,95.40
2018-03-27T18:44:07.959Z,95.30
2018-03-27T18:46:35.414Z,96.00
2018-03-27T18:49:02.861Z,96.50
2018-03-27T18:51:30.319Z,97.10
2018-03-27T18:53:57.750Z,97.60
2018-03-27T18:56:25.204Z,98.20
2018-03-27T18:58:52.639Z,98.60
2018-03-27T19:01:20.935Z,98.90
2018-03-27T19:03:48.386Z,99.30
2018-03-27T19:06:15.843Z,99.50
2018-03-27T19:08:44.322Z,99.90
2018-03-27T19:11:12.627Z,99.80
2018-03-27T19:13:40.078Z,99.90
2018-03-27T19:16:07.518Z,99.90
2018-03-27T19:18:34.952Z,99.90
2018-03-27T19:21:02.426Z,99.90
2018-03-27T19:23:30.162Z,99.90
2018-03-27T19:25:57.883Z,99.90
2018-03-27T19:28:25.322Z,99.90
2018-03-27T19:30:52.763Z,99.90
2018-03-27T19:33:20.472Z,99.90
2018-03-27T19:35:47.917Z,99.90
2018-03-27T19:38:15.374Z,99.90
2018-03-27T19:40:42.821Z,99.90
2018-03-27T19:43:10.263Z,99.90
2018-03-27T19:45:37.722Z,99.90
2018-03-27T19:48:05.443Z,99.90
2018-03-27T19:50:32.891Z,99.90
2018-03-27T19:53:00.348Z,99.90
2018-03-27T19:55:27.788Z,99.90
2018-03-27T19:57:55.250Z,99.90
2018-03-27T20:00:22.690Z,99.90
2018-03-27T20:02:50.149Z,99.90
2018-03-27T20:05:17.597Z,99.90
2018-03-27T20:07:45.333Z,99.90
2018-03-27T20:10:12.790Z,99.90
2018-03-27T20:12:40.269Z,99.90
2018-03-27T20:15:07.709Z,99.90
2018-03-27T20:17:35.165Z,99.90
2018-03-27T20:20:02.610Z,99.90
2018-03-27T20:22:30.062Z,99.90
2018-03-27T20:24:57.505Z,99.90
2018-03-27T20:27:24.965Z,99.90
2018-03-27T20:29:52.556Z,99.90
2018-03-27T20:32:20.047Z,99.90
2018-03-27T20:34:47.593Z,99.90
2018-03-27T20:37:15.030Z,99.90
2018-03-27T20:39:42.497Z,99.90
2018-03-27T20:42:09.942Z,99.90
2018-03-27T20:44:37.398Z,99.90
2018-03-27T20:47:04.844Z,99.90
2018-03-27T20:49:33.055Z,99.90
2018-03-27T20:52:00.510Z,99.90
2018-03-27T20:54:27.957Z,99.90
2018-03-27T20:56:55.684Z,99.90
2018-03-27T20:59:23.131Z,99.90
2018-03-27T21:01:50.577Z,99.90
2018-03-27T21:04:18.268Z,99.90
2018-03-27T21:06:45.710Z,99.90
2018-03-27T21:09:13.177Z,99.90
2018-03-27T21:11:40.635Z,99.90
2018-03-27T21:14:08.073Z,99.90
2018-03-27T21:16:35.517Z,99.90
2018-03-27T21:19:03.252Z,99.90
2018-03-27T21:21:30.830Z,99.90
2018-03-27T21:23:58.253Z,99.90
2018-03-27T21:26:25.693Z,99.90
2018-03-27T21:28:53.191Z,99.90
2018-03-27T21:31:20.648Z,99.90
2018-03-27T21:33:48.321Z,99.90
2018-03-27T21:36:15.760Z,99.90
2018-03-27T21:38:43.294Z,99.90
2018-03-27T21:41:10.751Z,99.90
2018-03-27T21:43:38.206Z,99.90
2018-03-27T21:46:05.677Z,99.90
2018-03-27T21:48:33.292Z,99.90
2018-03-27T21:51:00.733Z,99.90
2018-03-27T21:53:28.203Z,99.90
2018-03-27T21:55:55.655Z,99.90
2018-03-27T21:58:23.111Z,99.90
2018-03-27T22:00:50.549Z,99.90
2018-03-27T22:03:18.541Z,99.90
2018-03-27T22:05:45.980Z,99.90
2018-03-27T22:08:13.473Z,99.90
2018-03-27T22:10:40.981Z,99.90
2018-03-27T22:13:08.412Z,99.90
2018-03-27T22:15:36.056Z,99.90
2018-03-27T22:18:03.493Z,99.90
2018-03-27T22:20:31.049Z,99.90
2018-03-27T22:22:58.864Z,99.90
2018-03-27T22:25:26.290Z,99.90
2018-03-27T22:27:53.733Z,99.90
2018-03-27T22:30:21.202Z,99.90
2018-03-27T22:32:48.633Z,99.90
2018-03-27T22:35:16.087Z,99.90
2018-03-27T22:37:43.521Z,99.90
2018-03-27T22:40:11.168Z,99.90
2018-03-27T22:42:38.635Z,99.90
2018-03-27T22:45:06.132Z,99.90
2018-03-27T22:47:33.980Z,99.90
2018-03-27T22:50:01.427Z,99.90
2018-03-27T22:52:28.900Z,99.90
2018-03-27T22:54:56.355Z,99.90
2018-03-27T22:57:23.800Z,99.90
2018-03-27T22:59:51.362Z,99.90
2018-03-27T23:02:19.141Z,99.90
2018-03-27T23:04:46.577Z,99.90
2018-03-27T23:07:14.684Z,99.90
2018-03-27T23:09:42.138Z,99.90
2018-03-27T23:12:09.611Z,99.90
2018-03-27T23:14:37.059Z,99.90
2018-03-27T23:17:04.647Z,99.90
2018-03-27T23:19:32.088Z,99.90
2018-03-27T23:21:59.543Z,99.90
2018-03-27T23:24:27.008Z,99.90
2018-03-27T23:26:55.013Z,99.90
2018-03-27T23:29:22.453Z,99.90
2018-03-27T23:31:49.912Z,99.90
2018-03-27T23:34:17.581Z,99.90
2018-03-27T23:36:45.030Z,99.90
2018-03-27T23:39:12.465Z,99.90
2018-03-27T23:41:39.936Z,99.90
2018-03-27T23:44:07.396Z,99.90
2018-03-27T23:46:35.011Z,99.90
2018-03-27T23:49:03.961Z,99.90
2018-03-27T23:51:31.420Z,99.90
2018-03-27T23:53:58.876Z,99.90
2018-03-27T23:56:26.340Z,99.90
2018-03-27T23:58:53.765Z,99.90
